sensor_id;sensor_type;location;lat;lon;timestamp;P1;durP1;ratioP1;P2;durP2;ratioP2
59338;SDS011;45117;50.960;5.500;2023-02-15T00:00:25;73.78;;;27.63;;
59338;SDS011;45117;50.960;5.500;2023-02-15T00:02:51;72.00;;;27.60;;
59338;SDS011;45117;50.960;5.500;2023-02-15T00:05:18;88.72;;;29.48;;
59338;SDS011;45117;50.960;5.500;2023-02-15T00:07:44;76.80;;;27.15;;
59338;SDS011;45117;50.960;5.500;2023-02-15T00:10:12;80.10;;;26.95;;
59338;SDS011;45117;50.960;5.500;2023-02-15T00:12:39;73.60;;;28.45;;
59338;SDS011;45117;50.960;5.500;2023-02-15T00:15:05;71.32;;;27.77;;
59338;SDS011;45117;50.960;5.500;2023-02-15T00:17:32;64.80;;;26.15;;
59338;SDS011;45117;50.960;5.500;2023-02-15T00:19:59;66.07;;;25.13;;
59338;SDS011;45117;50.960;5.500;2023-02-15T00:22:25;54.67;;;23.83;;
59338;SDS011;45117;50.960;5.500;2023-02-15T00:24:52;58.55;;;24.17;;
59338;SDS011;45117;50.960;5.500;2023-02-15T00:27:19;55.92;;;24.70;;
59338;SDS011;45117;50.960;5.500;2023-02-15T00:29:46;55.08;;;24.33;;
59338;SDS011;45117;50.960;5.500;2023-02-15T00:32:13;57.58;;;25.10;;
59338;SDS011;45117;50.960;5.500;2023-02-15T00:34:39;71.60;;;27.42;;
59338;SDS011;45117;50.960;5.500;2023-02-15T00:37:06;67.60;;;27.58;;
59338;SDS011;45117;50.960;5.500;2023-02-15T00:39:32;59.28;;;25.67;;
59338;SDS011;45117;50.960;5.500;2023-02-15T00:41:59;57.65;;;24.85;;
59338;SDS011;45117;50.960;5.500;2023-02-15T00:44:27;59.00;;;25.08;;
59338;SDS011;45117;50.960;5.500;2023-02-15T00:46:53;57.63;;;24.10;;
59338;SDS011;45117;50.960;5.500;2023-02-15T00:49:20;59.63;;;23.55;;
59338;SDS011;45117;50.960;5.500;2023-02-15T00:51:46;54.55;;;23.40;;
59338;SDS011;45117;50.960;5.500;2023-02-15T00:54:12;59.38;;;24.23;;
59338;SDS011;45117;50.960;5.500;2023-02-15T00:56:39;57.75;;;23.98;;
59338;SDS011;45117;50.960;5.500;2023-02-15T00:59:05;56.13;;;24.88;;
59338;SDS011;45117;50.960;5.500;2023-02-15T01:01:33;53.20;;;23.17;;
59338;SDS011;45117;50.960;5.500;2023-02-15T01:04:00;54.58;;;23.85;;
59338;SDS011;45117;50.960;5.500;2023-02-15T01:06:27;50.73;;;22.63;;
59338;SDS011;45117;50.960;5.500;2023-02-15T01:08:54;53.63;;;23.35;;
59338;SDS011;45117;50.960;5.500;2023-02-15T01:11:21;56.53;;;23.05;;
59338;SDS011;45117;50.960;5.500;2023-02-15T01:13:48;55.38;;;23.50;;
59338;SDS011;45117;50.960;5.500;2023-02-15T01:16:15;58.72;;;24.67;;
59338;SDS011;45117;50.960;5.500;2023-02-15T01:18:44;52.20;;;22.83;;
59338;SDS011;45117;50.960;5.500;2023-02-15T01:21:11;58.60;;;24.15;;
59338;SDS011;45117;50.960;5.500;2023-02-15T01:23:39;55.72;;;23.95;;
59338;SDS011;45117;50.960;5.500;2023-02-15T01:26:06;53.97;;;22.83;;
59338;SDS011;45117;50.960;5.500;2023-02-15T01:28:33;56.65;;;23.33;;
59338;SDS011;45117;50.960;5.500;2023-02-15T01:31:04;54.08;;;22.73;;
59338;SDS011;45117;50.960;5.500;2023-02-15T01:33:31;56.72;;;23.48;;
59338;SDS011;45117;50.960;5.500;2023-02-15T01:35:58;52.78;;;23.58;;
59338;SDS011;45117;50.960;5.500;2023-02-15T01:38:25;57.58;;;24.08;;
59338;SDS011;45117;50.960;5.500;2023-02-15T01:40:51;56.70;;;23.60;;
59338;SDS011;45117;50.960;5.500;2023-02-15T01:43:18;58.15;;;24.70;;
59338;SDS011;45117;50.960;5.500;2023-02-15T01:45:45;54.17;;;22.83;;
59338;SDS011;45117;50.960;5.500;2023-02-15T01:48:17;50.00;;;22.52;;
59338;SDS011;45117;50.960;5.500;2023-02-15T01:50:47;47.78;;;22.60;;
59338;SDS011;45117;50.960;5.500;2023-02-15T01:53:21;49.70;;;20.98;;
59338;SDS011;45117;50.960;5.500;2023-02-15T01:55:52;54.13;;;22.95;;
59338;SDS011;45117;50.960;5.500;2023-02-15T01:58:20;54.50;;;22.38;;
59338;SDS011;45117;50.960;5.500;2023-02-15T02:00:48;52.65;;;21.90;;
59338;SDS011;45117;50.960;5.500;2023-02-15T02:03:14;52.20;;;22.98;;
59338;SDS011;45117;50.960;5.500;2023-02-15T02:05:41;49.50;;;21.90;;
59338;SDS011;45117;50.960;5.500;2023-02-15T02:08:08;54.65;;;22.40;;
59338;SDS011;45117;50.960;5.500;2023-02-15T02:10:36;52.88;;;22.52;;
59338;SDS011;45117;50.960;5.500;2023-02-15T02:13:03;50.05;;;22.10;;
59338;SDS011;45117;50.960;5.500;2023-02-15T02:15:33;51.45;;;22.45;;
59338;SDS011;45117;50.960;5.500;2023-02-15T02:18:10;48.75;;;21.45;;
59338;SDS011;45117;50.960;5.500;2023-02-15T02:30:06;53.58;;;22.13;;
59338;SDS011;45117;50.960;5.500;2023-02-15T02:33:16;51.75;;;21.33;;
59338;SDS011;45117;50.960;5.500;2023-02-15T02:35:53;48.17;;;20.55;;
59338;SDS011;45117;50.960;5.500;2023-02-15T02:38:27;50.72;;;21.50;;
59338;SDS011;45117;50.960;5.500;2023-02-15T02:41:02;48.15;;;20.95;;
59338;SDS011;45117;50.960;5.500;2023-02-15T02:43:40;51.88;;;22.17;;
59338;SDS011;45117;50.960;5.500;2023-02-15T02:46:18;52.42;;;22.38;;
59338;SDS011;45117;50.960;5.500;2023-02-15T02:48:49;52.08;;;21.40;;
59338;SDS011;45117;50.960;5.500;2023-02-15T02:51:16;59.50;;;22.70;;
59338;SDS011;45117;50.960;5.500;2023-02-15T02:53:46;58.15;;;23.33;;
59338;SDS011;45117;50.960;5.500;2023-02-15T02:56:21;50.10;;;22.02;;
59338;SDS011;45117;50.960;5.500;2023-02-15T02:58:51;51.00;;;22.58;;
59338;SDS011;45117;50.960;5.500;2023-02-15T03:01:24;50.97;;;21.35;;
59338;SDS011;45117;50.960;5.500;2023-02-15T03:03:57;51.63;;;22.65;;
59338;SDS011;45117;50.960;5.500;2023-02-15T03:06:29;57.47;;;22.80;;
59338;SDS011;45117;50.960;5.500;2023-02-15T03:09:02;57.30;;;22.33;;
59338;SDS011;45117;50.960;5.500;2023-02-15T03:11:40;58.92;;;22.92;;
59338;SDS011;45117;50.960;5.500;2023-02-15T03:14:10;59.90;;;23.20;;
59338;SDS011;45117;50.960;5.500;2023-02-15T03:16:39;56.95;;;22.88;;
59338;SDS011;45117;50.960;5.500;2023-02-15T03:19:09;54.40;;;21.95;;
59338;SDS011;45117;50.960;5.500;2023-02-15T03:21:40;60.10;;;24.02;;
59338;SDS011;45117;50.960;5.500;2023-02-15T03:24:14;55.75;;;22.92;;
59338;SDS011;45117;50.960;5.500;2023-02-15T03:26:46;57.78;;;23.85;;
59338;SDS011;45117;50.960;5.500;2023-02-15T03:29:15;57.33;;;23.70;;
59338;SDS011;45117;50.960;5.500;2023-02-15T03:31:45;59.58;;;23.75;;
59338;SDS011;45117;50.960;5.500;2023-02-15T03:34:18;55.80;;;22.85;;
59338;SDS011;45117;50.960;5.500;2023-02-15T03:36:45;58.08;;;23.42;;
59338;SDS011;45117;50.960;5.500;2023-02-15T03:39:18;59.33;;;24.45;;
59338;SDS011;45117;50.960;5.500;2023-02-15T03:41:51;56.83;;;23.95;;
59338;SDS011;45117;50.960;5.500;2023-02-15T03:44:25;65.78;;;24.50;;
59338;SDS011;45117;50.960;5.500;2023-02-15T03:46:56;54.80;;;23.33;;
59338;SDS011;45117;50.960;5.500;2023-02-15T03:49:30;62.15;;;24.00;;
59338;SDS011;45117;50.960;5.500;2023-02-15T03:52:04;60.95;;;24.17;;
59338;SDS011;45117;50.960;5.500;2023-02-15T03:54:32;52.15;;;21.98;;
59338;SDS011;45117;50.960;5.500;2023-02-15T03:57:12;57.72;;;22.48;;
59338;SDS011;45117;50.960;5.500;2023-02-15T03:59:59;58.53;;;23.40;;
59338;SDS011;45117;50.960;5.500;2023-02-15T04:02:48;56.15;;;22.80;;
59338;SDS011;45117;50.960;5.500;2023-02-15T04:05:25;59.70;;;22.83;;
59338;SDS011;45117;50.960;5.500;2023-02-15T04:07:52;57.88;;;24.23;;
59338;SDS011;45117;50.960;5.500;2023-02-15T04:10:18;63.33;;;24.92;;
59338;SDS011;45117;50.960;5.500;2023-02-15T04:13:02;60.13;;;24.13;;
59338;SDS011;45117;50.960;5.500;2023-02-15T04:15:29;60.13;;;23.45;;
59338;SDS011;45117;50.960;5.500;2023-02-15T04:18:13;65.90;;;25.35;;
59338;SDS011;45117;50.960;5.500;2023-02-15T04:20:44;58.17;;;24.05;;
59338;SDS011;45117;50.960;5.500;2023-02-15T04:23:31;61.63;;;27.17;;
59338;SDS011;45117;50.960;5.500;2023-02-15T04:26:15;63.90;;;26.00;;
59338;SDS011;45117;50.960;5.500;2023-02-15T04:28:41;64.90;;;26.83;;
59338;SDS011;45117;50.960;5.500;2023-02-15T04:31:08;65.15;;;25.30;;
59338;SDS011;45117;50.960;5.500;2023-02-15T04:33:34;59.13;;;23.70;;
59338;SDS011;45117;50.960;5.500;2023-02-15T04:36:03;63.80;;;25.15;;
59338;SDS011;45117;50.960;5.500;2023-02-15T04:38:30;63.30;;;23.88;;
59338;SDS011;45117;50.960;5.500;2023-02-15T04:40:56;59.85;;;25.25;;
59338;SDS011;45117;50.960;5.500;2023-02-15T04:43:23;63.60;;;25.13;;
59338;SDS011;45117;50.960;5.500;2023-02-15T04:45:49;57.80;;;23.05;;
59338;SDS011;45117;50.960;5.500;2023-02-15T04:48:17;59.15;;;25.13;;
59338;SDS011;45117;50.960;5.500;2023-02-15T04:50:44;62.70;;;23.85;;
59338;SDS011;45117;50.960;5.500;2023-02-15T04:53:12;60.05;;;23.70;;
59338;SDS011;45117;50.960;5.500;2023-02-15T04:55:38;56.33;;;23.17;;
59338;SDS011;45117;50.960;5.500;2023-02-15T04:58:05;59.72;;;24.08;;
59338;SDS011;45117;50.960;5.500;2023-02-15T05:00:31;57.45;;;23.40;;
59338;SDS011;45117;50.960;5.500;2023-02-15T05:02:58;53.55;;;22.60;;
59338;SDS011;45117;50.960;5.500;2023-02-15T05:05:24;59.13;;;23.58;;
59338;SDS011;45117;50.960;5.500;2023-02-15T05:07:51;57.00;;;23.50;;
59338;SDS011;45117;50.960;5.500;2023-02-15T05:10:19;58.92;;;23.30;;
59338;SDS011;45117;50.960;5.500;2023-02-15T05:12:45;65.30;;;24.52;;
59338;SDS011;45117;50.960;5.500;2023-02-15T05:15:12;57.80;;;23.77;;
59338;SDS011;45117;50.960;5.500;2023-02-15T05:17:39;57.97;;;23.35;;
59338;SDS011;45117;50.960;5.500;2023-02-15T05:20:06;65.50;;;25.02;;
59338;SDS011;45117;50.960;5.500;2023-02-15T05:22:33;57.17;;;24.73;;
59338;SDS011;45117;50.960;5.500;2023-02-15T05:24:59;62.45;;;24.52;;
59338;SDS011;45117;50.960;5.500;2023-02-15T05:27:45;59.78;;;24.13;;
59338;SDS011;45117;50.960;5.500;2023-02-15T05:30:28;63.15;;;25.55;;
59338;SDS011;45117;50.960;5.500;2023-02-15T05:32:55;65.63;;;25.52;;
59338;SDS011;45117;50.960;5.500;2023-02-15T05:35:22;60.78;;;24.42;;
59338;SDS011;45117;50.960;5.500;2023-02-15T05:37:48;64.97;;;25.55;;
59338;SDS011;45117;50.960;5.500;2023-02-15T05:40:15;60.80;;;24.52;;
59338;SDS011;45117;50.960;5.500;2023-02-15T05:42:41;58.58;;;22.92;;
59338;SDS011;45117;50.960;5.500;2023-02-15T05:45:09;67.68;;;26.30;;
59338;SDS011;45117;50.960;5.500;2023-02-15T05:47:36;66.70;;;25.55;;
59338;SDS011;45117;50.960;5.500;2023-02-15T05:50:03;59.15;;;24.45;;
59338;SDS011;45117;50.960;5.500;2023-02-15T05:52:30;62.83;;;27.13;;
59338;SDS011;45117;50.960;5.500;2023-02-15T05:54:56;70.93;;;29.90;;
59338;SDS011;45117;50.960;5.500;2023-02-15T05:57:25;70.68;;;28.27;;
59338;SDS011;45117;50.960;5.500;2023-02-15T05:59:51;70.28;;;27.67;;
59338;SDS011;45117;50.960;5.500;2023-02-15T06:02:19;74.05;;;29.25;;
59338;SDS011;45117;50.960;5.500;2023-02-15T06:04:46;69.65;;;28.30;;
59338;SDS011;45117;50.960;5.500;2023-02-15T06:07:12;72.10;;;28.92;;
59338;SDS011;45117;50.960;5.500;2023-02-15T06:09:39;67.78;;;27.85;;
59338;SDS011;45117;50.960;5.500;2023-02-15T06:12:05;71.20;;;27.13;;
59338;SDS011;45117;50.960;5.500;2023-02-15T06:14:32;83.72;;;31.88;;
59338;SDS011;45117;50.960;5.500;2023-02-15T06:16:58;80.47;;;29.98;;
59338;SDS011;45117;50.960;5.500;2023-02-15T06:19:26;71.25;;;28.52;;
59338;SDS011;45117;50.960;5.500;2023-02-15T06:21:53;65.28;;;28.10;;
59338;SDS011;45117;50.960;5.500;2023-02-15T06:24:19;73.65;;;26.15;;
59338;SDS011;45117;50.960;5.500;2023-02-15T06:26:45;68.50;;;26.55;;
59338;SDS011;45117;50.960;5.500;2023-02-15T06:29:12;66.32;;;26.67;;
59338;SDS011;45117;50.960;5.500;2023-02-15T06:31:39;81.72;;;30.77;;
59338;SDS011;45117;50.960;5.500;2023-02-15T06:34:05;122.57;;;40.88;;
59338;SDS011;45117;50.960;5.500;2023-02-15T06:36:33;97.55;;;35.15;;
59338;SDS011;45117;50.960;5.500;2023-02-15T06:39:02;91.43;;;32.58;;
59338;SDS011;45117;50.960;5.500;2023-02-15T06:41:29;78.18;;;29.38;;
59338;SDS011;45117;50.960;5.500;2023-02-15T06:43:56;73.35;;;26.38;;
59338;SDS011;45117;50.960;5.500;2023-02-15T06:46:22;73.00;;;28.27;;
59338;SDS011;45117;50.960;5.500;2023-02-15T06:48:49;77.03;;;27.55;;
59338;SDS011;45117;50.960;5.500;2023-02-15T06:51:15;79.47;;;28.23;;
59338;SDS011;45117;50.960;5.500;2023-02-15T06:53:43;97.38;;;34.78;;
59338;SDS011;45117;50.960;5.500;2023-02-15T06:56:10;116.57;;;39.50;;
59338;SDS011;45117;50.960;5.500;2023-02-15T06:58:37;119.85;;;41.28;;
59338;SDS011;45117;50.960;5.500;2023-02-15T07:01:04;111.53;;;38.65;;
59338;SDS011;45117;50.960;5.500;2023-02-15T07:03:31;97.47;;;35.47;;
59338;SDS011;45117;50.960;5.500;2023-02-15T07:06:00;84.07;;;33.65;;
59338;SDS011;45117;50.960;5.500;2023-02-15T07:08:30;81.70;;;30.90;;
59338;SDS011;45117;50.960;5.500;2023-02-15T07:10:58;73.93;;;28.75;;
59338;SDS011;45117;50.960;5.500;2023-02-15T07:13:45;76.28;;;28.75;;
59338;SDS011;45117;50.960;5.500;2023-02-15T07:16:11;70.07;;;25.85;;
59338;SDS011;45117;50.960;5.500;2023-02-15T07:18:38;67.07;;;28.33;;
59338;SDS011;45117;50.960;5.500;2023-02-15T07:21:05;65.03;;;27.10;;
59338;SDS011;45117;50.960;5.500;2023-02-15T07:23:44;66.57;;;26.30;;
59338;SDS011;45117;50.960;5.500;2023-02-15T07:26:15;69.15;;;26.40;;
59338;SDS011;45117;50.960;5.500;2023-02-15T07:28:41;68.72;;;26.45;;
59338;SDS011;45117;50.960;5.500;2023-02-15T07:31:08;67.57;;;27.55;;
59338;SDS011;45117;50.960;5.500;2023-02-15T07:33:34;70.45;;;28.25;;
59338;SDS011;45117;50.960;5.500;2023-02-15T07:36:02;70.88;;;28.55;;
59338;SDS011;45117;50.960;5.500;2023-02-15T07:38:30;73.68;;;28.63;;
59338;SDS011;45117;50.960;5.500;2023-02-15T07:40:58;78.60;;;29.85;;
59338;SDS011;45117;50.960;5.500;2023-02-15T07:43:26;73.82;;;28.92;;
59338;SDS011;45117;50.960;5.500;2023-02-15T07:45:53;71.80;;;28.58;;
59338;SDS011;45117;50.960;5.500;2023-02-15T07:48:20;73.70;;;28.45;;
59338;SDS011;45117;50.960;5.500;2023-02-15T07:50:47;75.45;;;29.30;;
59338;SDS011;45117;50.960;5.500;2023-02-15T07:53:13;76.03;;;29.00;;
59338;SDS011;45117;50.960;5.500;2023-02-15T07:55:40;73.15;;;28.65;;
59338;SDS011;45117;50.960;5.500;2023-02-15T07:58:06;81.57;;;29.60;;
59338;SDS011;45117;50.960;5.500;2023-02-15T08:00:34;87.82;;;30.08;;
59338;SDS011;45117;50.960;5.500;2023-02-15T08:03:22;87.43;;;30.65;;
59338;SDS011;45117;50.960;5.500;2023-02-15T08:05:51;103.20;;;33.05;;
59338;SDS011;45117;50.960;5.500;2023-02-15T08:08:22;90.88;;;33.20;;
59338;SDS011;45117;50.960;5.500;2023-02-15T08:10:59;90.75;;;32.63;;
59338;SDS011;45117;50.960;5.500;2023-02-15T08:13:44;81.55;;;30.52;;
59338;SDS011;45117;50.960;5.500;2023-02-15T08:16:21;75.88;;;28.92;;
59338;SDS011;45117;50.960;5.500;2023-02-15T08:18:49;74.40;;;29.48;;
59338;SDS011;45117;50.960;5.500;2023-02-15T08:21:16;80.47;;;30.58;;
59338;SDS011;45117;50.960;5.500;2023-02-15T08:23:42;68.82;;;27.65;;
59338;SDS011;45117;50.960;5.500;2023-02-15T08:26:09;87.13;;;30.70;;
59338;SDS011;45117;50.960;5.500;2023-02-15T08:28:36;87.38;;;29.75;;
59338;SDS011;45117;50.960;5.500;2023-02-15T08:31:05;93.70;;;33.05;;
59338;SDS011;45117;50.960;5.500;2023-02-15T08:33:34;79.95;;;31.67;;
59338;SDS011;45117;50.960;5.500;2023-02-15T08:36:04;81.80;;;29.35;;
59338;SDS011;45117;50.960;5.500;2023-02-15T08:38:32;72.57;;;26.67;;
59338;SDS011;45117;50.960;5.500;2023-02-15T08:41:08;62.60;;;25.90;;
59338;SDS011;45117;50.960;5.500;2023-02-15T08:43:36;64.20;;;23.95;;
59338;SDS011;45117;50.960;5.500;2023-02-15T08:46:03;60.47;;;24.20;;
59338;SDS011;45117;50.960;5.500;2023-02-15T08:48:30;57.67;;;24.02;;
59338;SDS011;45117;50.960;5.500;2023-02-15T08:50:58;50.63;;;21.90;;
59338;SDS011;45117;50.960;5.500;2023-02-15T08:53:24;54.80;;;22.73;;
59338;SDS011;45117;50.960;5.500;2023-02-15T08:55:54;49.10;;;21.38;;
59338;SDS011;45117;50.960;5.500;2023-02-15T08:58:22;51.20;;;21.48;;
59338;SDS011;45117;50.960;5.500;2023-02-15T09:00:48;51.38;;;20.98;;
59338;SDS011;45117;50.960;5.500;2023-02-15T09:03:15;50.40;;;20.70;;
59338;SDS011;45117;50.960;5.500;2023-02-15T09:05:41;50.72;;;20.15;;
59338;SDS011;45117;50.960;5.500;2023-02-15T09:08:09;46.83;;;20.83;;
59338;SDS011;45117;50.960;5.500;2023-02-15T09:10:36;46.70;;;19.40;;
59338;SDS011;45117;50.960;5.500;2023-02-15T09:13:02;47.10;;;19.33;;
59338;SDS011;45117;50.960;5.500;2023-02-15T09:15:29;45.83;;;19.30;;
59338;SDS011;45117;50.960;5.500;2023-02-15T09:17:55;44.17;;;18.40;;
59338;SDS011;45117;50.960;5.500;2023-02-15T09:20:24;39.42;;;18.50;;
59338;SDS011;45117;50.960;5.500;2023-02-15T09:22:51;48.75;;;21.73;;
59338;SDS011;45117;50.960;5.500;2023-02-15T09:25:19;46.72;;;21.42;;
59338;SDS011;45117;50.960;5.500;2023-02-15T09:27:46;46.58;;;21.17;;
59338;SDS011;45117;50.960;5.500;2023-02-15T09:30:13;50.42;;;21.67;;
59338;SDS011;45117;50.960;5.500;2023-02-15T09:32:39;49.22;;;22.30;;
59338;SDS011;45117;50.960;5.500;2023-02-15T09:35:06;45.00;;;21.88;;
59338;SDS011;45117;50.960;5.500;2023-02-15T09:37:33;47.13;;;21.90;;
59338;SDS011;45117;50.960;5.500;2023-02-15T09:39:59;42.17;;;20.40;;
59338;SDS011;45117;50.960;5.500;2023-02-15T09:42:34;50.22;;;22.38;;
59338;SDS011;45117;50.960;5.500;2023-02-15T09:45:23;46.30;;;21.45;;
59338;SDS011;45117;50.960;5.500;2023-02-15T09:47:59;50.85;;;21.42;;
59338;SDS011;45117;50.960;5.500;2023-02-15T09:50:36;45.78;;;20.95;;
59338;SDS011;45117;50.960;5.500;2023-02-15T09:53:20;48.53;;;20.23;;
59338;SDS011;45117;50.960;5.500;2023-02-15T09:56:14;48.90;;;19.85;;
59338;SDS011;45117;50.960;5.500;2023-02-15T09:58:48;42.55;;;17.75;;
59338;SDS011;45117;50.960;5.500;2023-02-15T10:01:25;39.28;;;17.80;;
59338;SDS011;45117;50.960;5.500;2023-02-15T10:04:05;43.97;;;18.67;;
59338;SDS011;45117;50.960;5.500;2023-02-15T10:06:49;41.17;;;17.88;;
59338;SDS011;45117;50.960;5.500;2023-02-15T10:09:30;36.45;;;17.55;;
59338;SDS011;45117;50.960;5.500;2023-02-15T10:12:18;34.28;;;16.65;;
59338;SDS011;45117;50.960;5.500;2023-02-15T10:17:53;37.17;;;17.45;;
59338;SDS011;45117;50.960;5.500;2023-02-15T10:20:32;37.92;;;17.40;;
59338;SDS011;45117;50.960;5.500;2023-02-15T10:23:11;35.38;;;16.30;;
59338;SDS011;45117;50.960;5.500;2023-02-15T10:25:53;40.10;;;17.52;;
59338;SDS011;45117;50.960;5.500;2023-02-15T10:28:26;40.13;;;16.73;;
59338;SDS011;45117;50.960;5.500;2023-02-15T10:31:02;34.90;;;17.02;;
59338;SDS011;45117;50.960;5.500;2023-02-15T10:33:38;32.60;;;15.43;;
59338;SDS011;45117;50.960;5.500;2023-02-15T10:36:08;33.53;;;14.32;;
59338;SDS011;45117;50.960;5.500;2023-02-15T10:38:44;33.28;;;15.90;;
59338;SDS011;45117;50.960;5.500;2023-02-15T10:41:22;34.92;;;16.85;;
59338;SDS011;45117;50.960;5.500;2023-02-15T10:44:00;35.08;;;14.98;;
59338;SDS011;45117;50.960;5.500;2023-02-15T10:46:42;28.67;;;12.80;;
59338;SDS011;45117;50.960;5.500;2023-02-15T10:49:23;33.78;;;16.65;;
59338;SDS011;45117;50.960;5.500;2023-02-15T10:52:02;27.85;;;14.43;;
59338;SDS011;45117;50.960;5.500;2023-02-15T10:54:41;38.63;;;16.23;;
59338;SDS011;45117;50.960;5.500;2023-02-15T10:57:13;28.92;;;14.55;;
59338;SDS011;45117;50.960;5.500;2023-02-15T11:00:01;32.50;;;15.65;;
59338;SDS011;45117;50.960;5.500;2023-02-15T11:02:40;36.65;;;17.00;;
59338;SDS011;45117;50.960;5.500;2023-02-15T11:05:30;30.67;;;15.93;;
59338;SDS011;45117;50.960;5.500;2023-02-15T11:08:06;34.58;;;17.38;;
59338;SDS011;45117;50.960;5.500;2023-02-15T11:10:36;38.85;;;18.13;;
59338;SDS011;45117;50.960;5.500;2023-02-15T11:13:08;34.28;;;17.90;;
59338;SDS011;45117;50.960;5.500;2023-02-15T11:15:36;39.47;;;18.65;;
59338;SDS011;45117;50.960;5.500;2023-02-15T11:18:09;35.78;;;17.63;;
59338;SDS011;45117;50.960;5.500;2023-02-15T11:20:41;37.78;;;17.88;;
59338;SDS011;45117;50.960;5.500;2023-02-15T11:23:20;35.00;;;16.35;;
59338;SDS011;45117;50.960;5.500;2023-02-15T11:25:52;33.28;;;17.40;;
59338;SDS011;45117;50.960;5.500;2023-02-15T11:28:24;33.60;;;16.60;;
59338;SDS011;45117;50.960;5.500;2023-02-15T11:30:54;32.85;;;15.68;;
59338;SDS011;45117;50.960;5.500;2023-02-15T11:33:25;36.22;;;17.65;;
59338;SDS011;45117;50.960;5.500;2023-02-15T11:35:55;36.58;;;18.23;;
59338;SDS011;45117;50.960;5.500;2023-02-15T11:38:28;37.95;;;17.63;;
59338;SDS011;45117;50.960;5.500;2023-02-15T11:40:59;34.50;;;16.80;;
59338;SDS011;45117;50.960;5.500;2023-02-15T11:43:31;34.28;;;17.08;;
59338;SDS011;45117;50.960;5.500;2023-02-15T11:46:02;31.70;;;17.02;;
59338;SDS011;45117;50.960;5.500;2023-02-15T11:48:30;35.60;;;16.23;;
59338;SDS011;45117;50.960;5.500;2023-02-15T11:50:57;31.63;;;16.38;;
59338;SDS011;45117;50.960;5.500;2023-02-15T11:53:25;32.15;;;15.93;;
59338;SDS011;45117;50.960;5.500;2023-02-15T11:55:58;34.92;;;16.38;;
59338;SDS011;45117;50.960;5.500;2023-02-15T11:58:27;31.48;;;16.48;;
59338;SDS011;45117;50.960;5.500;2023-02-15T12:01:00;33.65;;;16.35;;
59338;SDS011;45117;50.960;5.500;2023-02-15T12:03:36;34.95;;;16.05;;
59338;SDS011;45117;50.960;5.500;2023-02-15T12:06:12;34.40;;;16.63;;
59338;SDS011;45117;50.960;5.500;2023-02-15T12:08:43;34.13;;;16.77;;
59338;SDS011;45117;50.960;5.500;2023-02-15T12:11:17;33.45;;;15.75;;
59338;SDS011;45117;50.960;5.500;2023-02-15T12:13:55;31.35;;;14.55;;
59338;SDS011;45117;50.960;5.500;2023-02-15T12:16:23;28.52;;;13.32;;
59338;SDS011;45117;50.960;5.500;2023-02-15T12:18:53;32.95;;;14.88;;
59338;SDS011;45117;50.960;5.500;2023-02-15T12:21:25;30.52;;;13.63;;
59338;SDS011;45117;50.960;5.500;2023-02-15T12:23:55;30.83;;;15.40;;
59338;SDS011;45117;50.960;5.500;2023-02-15T12:26:24;29.45;;;13.10;;
59338;SDS011;45117;50.960;5.500;2023-02-15T12:28:52;26.75;;;13.38;;
59338;SDS011;45117;50.960;5.500;2023-02-15T12:31:24;31.23;;;14.98;;
59338;SDS011;45117;50.960;5.500;2023-02-15T12:33:55;31.40;;;15.73;;
59338;SDS011;45117;50.960;5.500;2023-02-15T12:36:24;29.13;;;13.82;;
59338;SDS011;45117;50.960;5.500;2023-02-15T12:39:03;33.45;;;13.43;;
59338;SDS011;45117;50.960;5.500;2023-02-15T12:41:32;28.02;;;13.20;;
59338;SDS011;45117;50.960;5.500;2023-02-15T12:44:03;33.55;;;15.93;;
59338;SDS011;45117;50.960;5.500;2023-02-15T12:46:32;32.72;;;15.05;;
59338;SDS011;45117;50.960;5.500;2023-02-15T12:49:07;29.55;;;14.18;;
59338;SDS011;45117;50.960;5.500;2023-02-15T12:51:48;32.53;;;15.07;;
59338;SDS011;45117;50.960;5.500;2023-02-15T12:54:16;32.17;;;14.48;;
59338;SDS011;45117;50.960;5.500;2023-02-15T12:57:14;34.08;;;15.98;;
59338;SDS011;45117;50.960;5.500;2023-02-15T12:59:48;33.25;;;15.93;;
59338;SDS011;45117;50.960;5.500;2023-02-15T13:04:24;33.83;;;17.02;;
59338;SDS011;45117;50.960;5.500;2023-02-15T13:06:52;32.22;;;16.00;;
59338;SDS011;45117;50.960;5.500;2023-02-15T13:09:24;33.35;;;16.50;;
59338;SDS011;45117;50.960;5.500;2023-02-15T13:12:08;32.58;;;16.40;;
59338;SDS011;45117;50.960;5.500;2023-02-15T13:14:36;33.05;;;17.33;;
59338;SDS011;45117;50.960;5.500;2023-02-15T13:17:03;34.35;;;17.05;;
59338;SDS011;45117;50.960;5.500;2023-02-15T13:19:33;32.38;;;15.93;;
59338;SDS011;45117;50.960;5.500;2023-02-15T13:22:02;31.60;;;15.60;;
59338;SDS011;45117;50.960;5.500;2023-02-15T13:24:33;33.85;;;17.30;;
59338;SDS011;45117;50.960;5.500;2023-02-15T13:27:02;31.25;;;16.90;;
59338;SDS011;45117;50.960;5.500;2023-02-15T13:29:30;35.53;;;18.23;;
59338;SDS011;45117;50.960;5.500;2023-02-15T13:32:00;30.02;;;15.60;;
59338;SDS011;45117;50.960;5.500;2023-02-15T13:34:35;35.75;;;17.67;;
59338;SDS011;45117;50.960;5.500;2023-02-15T13:37:04;32.58;;;16.73;;
59338;SDS011;45117;50.960;5.500;2023-02-15T13:39:34;33.38;;;16.83;;
59338;SDS011;45117;50.960;5.500;2023-02-15T13:42:13;31.42;;;16.02;;
59338;SDS011;45117;50.960;5.500;2023-02-15T13:44:54;36.78;;;18.55;;
59338;SDS011;45117;50.960;5.500;2023-02-15T13:47:35;32.42;;;17.75;;
59338;SDS011;45117;50.960;5.500;2023-02-15T13:50:18;36.58;;;18.15;;
59338;SDS011;45117;50.960;5.500;2023-02-15T13:52:55;31.92;;;16.92;;
59338;SDS011;45117;50.960;5.500;2023-02-15T13:55:31;35.65;;;17.75;;
59338;SDS011;45117;50.960;5.500;2023-02-15T14:01:06;31.50;;;15.10;;
59338;SDS011;45117;50.960;5.500;2023-02-15T14:06:48;33.40;;;16.70;;
59338;SDS011;45117;50.960;5.500;2023-02-15T14:09:28;32.38;;;15.70;;
59338;SDS011;45117;50.960;5.500;2023-02-15T14:12:10;35.10;;;17.90;;
59338;SDS011;45117;50.960;5.500;2023-02-15T14:14:55;33.60;;;18.23;;
59338;SDS011;45117;50.960;5.500;2023-02-15T14:17:34;33.22;;;16.30;;
59338;SDS011;45117;50.960;5.500;2023-02-15T14:20:14;34.97;;;17.77;;
59338;SDS011;45117;50.960;5.500;2023-02-15T14:22:48;34.42;;;17.00;;
59338;SDS011;45117;50.960;5.500;2023-02-15T14:25:25;34.25;;;16.75;;
59338;SDS011;45117;50.960;5.500;2023-02-15T14:27:56;32.40;;;15.52;;
59338;SDS011;45117;50.960;5.500;2023-02-15T14:30:30;33.65;;;17.73;;
59338;SDS011;45117;50.960;5.500;2023-02-15T14:33:00;36.90;;;18.27;;
59338;SDS011;45117;50.960;5.500;2023-02-15T14:35:31;36.08;;;18.92;;
59338;SDS011;45117;50.960;5.500;2023-02-15T14:38:00;36.00;;;17.35;;
59338;SDS011;45117;50.960;5.500;2023-02-15T14:40:35;31.45;;;15.75;;
59338;SDS011;45117;50.960;5.500;2023-02-15T14:43:27;35.10;;;17.30;;
59338;SDS011;45117;50.960;5.500;2023-02-15T14:46:14;38.05;;;18.13;;
59338;SDS011;45117;50.960;5.500;2023-02-15T14:48:47;30.20;;;16.02;;
59338;SDS011;45117;50.960;5.500;2023-02-15T14:57:25;33.17;;;16.45;;
59338;SDS011;45117;50.960;5.500;2023-02-15T14:59:53;35.72;;;16.48;;
59338;SDS011;45117;50.960;5.500;2023-02-15T15:02:23;35.22;;;15.52;;
59338;SDS011;45117;50.960;5.500;2023-02-15T15:04:56;35.03;;;16.00;;
59338;SDS011;45117;50.960;5.500;2023-02-15T15:07:36;32.60;;;15.65;;
59338;SDS011;45117;50.960;5.500;2023-02-15T15:16:24;32.05;;;14.32;;